createdAt,value
2022-08-28T00:01:05.050Z,97155.25
2022-08-28T00:03:33.334Z,97160.66
2022-08-28T00:06:02.588Z,97155.28
2022-08-28T00:08:32.053Z,97152.47
2022-08-28T00:11:00.447Z,97156.59
2022-08-28T00:13:29.517Z,97156.19
2022-08-28T00:16:01.585Z,97151.69
2022-08-28T00:18:32.129Z,97152.94
2022-08-28T00:21:00.548Z,97160.63
2022-08-28T00:23:30.370Z,97156.19
2022-08-28T00:26:32.230Z,97155.78
2022-08-28T00:29:01.201Z,97157.25
2022-08-28T00:31:29.637Z,97167.41
2022-08-28T00:33:57.930Z,97161.78
2022-08-28T00:36:27.308Z,97154.16
2022-08-28T00:38:55.761Z,97159.69
2022-08-28T00:41:27.436Z,97162.19
2022-08-28T00:44:08.048Z,97154.81
2022-08-28T00:46:36.507Z,97156.34
2022-08-28T00:49:05.869Z,97163.19
2022-08-28T00:51:53.987Z,97155.81
2022-08-28T00:54:22.608Z,97152.69
2022-08-28T00:56:52.886Z,97155.88
2022-08-28T00:59:27.194Z,97151.69
2022-08-28T01:01:57.287Z,97159.59
2022-08-28T01:04:26.551Z,97160.66
2022-08-28T01:06:56.068Z,97157.59
2022-08-28T01:09:26.852Z,97161.19
2022-08-28T01:11:58.445Z,97159.88
2022-08-28T01:14:30.028Z,97166.94
2022-08-28T01:16:58.388Z,97167.19
2022-08-28T01:19:32.299Z,97164.81
2022-08-28T01:22:23.766Z,97160.13
2022-08-28T01:24:52.970Z,97152.09
2022-08-28T01:27:23.973Z,97152.91
2022-08-28T01:29:53.390Z,97150.91
2022-08-28T01:32:36.237Z,97156.00
2022-08-28T01:35:07.060Z,97151.84
2022-08-28T01:37:35.431Z,97146.16
2022-08-28T01:40:05.646Z,97163.81
2022-08-28T01:42:40.695Z,97155.50
2022-08-28T01:45:11.343Z,97151.91
2022-08-28T01:47:41.635Z,97162.81
2022-08-28T01:50:10.939Z,97164.88
2022-08-28T01:52:41.904Z,97161.81
2022-08-28T01:55:11.764Z,97163.94
2022-08-28T01:57:45.804Z,97160.03
2022-08-28T02:00:15.727Z,97159.22
2022-08-28T02:02:44.088Z,97162.09
2022-08-28T02:05:12.475Z,97160.81
2022-08-28T02:07:40.751Z,97166.31
2022-08-28T02:10:10.568Z,97160.88
2022-08-28T02:12:39.393Z,97165.81
2022-08-28T02:15:08.256Z,97162.41
2022-08-28T02:17:36.598Z,97162.91
2022-08-28T02:20:06.047Z,97156.19
2022-08-28T02:22:34.447Z,97158.25
2022-08-28T02:25:04.321Z,97157.97
2022-08-28T02:27:33.178Z,97158.00
2022-08-28T02:30:01.512Z,97157.72
2022-08-28T02:32:30.039Z,97161.34
2022-08-28T02:34:58.295Z,97159.31
2022-08-28T02:37:26.574Z,97169.78
2022-08-28T02:39:55.484Z,97161.94
2022-08-28T02:42:23.804Z,97154.66
2022-08-28T02:44:52.126Z,97157.50
2022-08-28T02:47:21.052Z,97160.63
2022-08-28T02:49:49.549Z,97161.41
2022-08-28T02:52:19.962Z,97155.13
2022-08-28T02:54:48.385Z,97163.75
2022-08-28T02:57:17.502Z,97155.44
2022-08-28T02:59:48.080Z,97155.19
2022-08-28T03:02:17.159Z,97154.66
2022-08-28T03:04:45.580Z,97158.06
2022-08-28T03:07:14.647Z,97157.78
2022-08-28T03:09:44.437Z,97162.97
2022-08-28T03:12:13.690Z,97161.69
2022-08-28T03:14:42.705Z,97160.94
2022-08-28T03:17:10.989Z,97171.59
2022-08-28T03:19:40.390Z,97169.53
2022-08-28T03:22:08.713Z,97160.13
2022-08-28T03:24:37.987Z,97171.59
2022-08-28T03:27:06.345Z,97179.69
2022-08-28T03:29:35.130Z,97178.66
2022-08-28T03:32:04.058Z,97183.31
2022-08-28T03:34:33.810Z,97180.16
2022-08-28T03:37:02.095Z,97183.59
2022-08-28T03:39:30.408Z,97183.31
2022-08-28T03:41:59.305Z,97186.69
2022-08-28T03:44:27.707Z,97192.19
2022-08-28T03:46:55.964Z,97193.69
2022-08-28T03:49:24.220Z,97191.66
2022-08-28T03:51:53.018Z,97201.28
2022-08-28T03:54:21.345Z,97198.94
2022-08-28T03:56:49.648Z,97206.72
2022-08-28T03:59:18.052Z,97208.28
2022-08-28T04:01:46.576Z,97206.97
2022-08-28T04:04:15.162Z,97208.28
2022-08-28T04:06:43.507Z,97202.56
2022-08-28T04:09:12.494Z,97206.19
2022-08-28T04:11:44.151Z,97211.91
2022-08-28T04:14:12.550Z,97207.75
2022-08-28T04:16:41.673Z,97222.28
2022-08-28T04:19:10.063Z,97208.75
2022-08-28T04:21:40.000Z,97216.56
2022-08-28T04:24:09.801Z,97227.53
2022-08-28T04:26:38.323Z,97218.16
2022-08-28T04:29:08.250Z,97226.50
2022-08-28T04:31:36.746Z,97222.88
2022-08-28T04:34:06.378Z,97226.53
2022-08-28T04:36:34.786Z,97224.94
2022-08-28T04:39:05.600Z,97223.91
2022-08-28T04:41:36.801Z,97222.38
2022-08-28T04:44:06.263Z,97230.22
2022-08-28T04:46:35.281Z,97228.13
2022-08-28T04:49:04.518Z,97233.06
2022-08-28T04:51:34.065Z,97221.34
2022-08-28T04:54:03.235Z,97235.41
2022-08-28T04:56:31.593Z,97238.56
2022-08-28T04:59:04.663Z,97235.41
2022-08-28T05:01:33.348Z,97239.31
2022-08-28T05:04:02.529Z,97247.38
2022-08-28T05:06:31.637Z,97243.22
2022-08-28T05:09:01.707Z,97247.38
2022-08-28T05:11:34.579Z,97252.06
2022-08-28T05:14:08.391Z,97248.66
2022-08-28T05:16:47.285Z,97252.03
2022-08-28T05:19:17.035Z,97247.34
2022-08-28T05:21:46.991Z,97247.34
2022-08-28T05:24:15.836Z,97248.63
2022-08-28T05:26:44.193Z,97253.06
2022-08-28T05:29:17.146Z,97253.28
2022-08-28T05:31:45.708Z,97251.94
2022-08-28T05:34:15.470Z,97261.84
2022-08-28T05:36:44.361Z,97260.22
2022-08-28T05:39:13.138Z,97259.97
2022-08-28T05:41:43.455Z,97250.81
2022-08-28T05:44:13.200Z,97258.34
2022-08-28T05:46:42.825Z,97261.44
2022-08-28T05:49:11.323Z,97270.03
2022-08-28T05:51:41.222Z,97268.41
2022-08-28T05:54:09.857Z,97268.69
2022-08-28T05:56:39.643Z,97260.53
2022-08-28T05:59:08.362Z,97265.22
2022-08-28T06:01:40.022Z,97258.88
2022-08-28T06:04:13.578Z,97254.88
2022-08-28T06:06:42.389Z,97261.13
2022-08-28T06:09:16.265Z,97251.16
2022-08-28T06:11:46.452Z,97262.09
2022-08-28T06:14:17.902Z,97264.91
2022-08-28T06:16:48.640Z,97254.44
2022-08-28T06:19:17.433Z,97265.41
2022-08-28T06:21:47.181Z,97265.25
2022-08-28T06:24:15.590Z,97253.44
2022-08-28T06:26:44.751Z,97247.59
2022-08-28T06:29:14.964Z,97255.81
2022-08-28T06:31:45.302Z,97248.44
2022-08-28T06:34:14.271Z,97254.91
2022-08-28T06:36:42.726Z,97252.97
2022-08-28T06:39:12.913Z,97258.91
2022-08-28T06:41:43.660Z,97247.38
2022-08-28T06:44:15.144Z,97255.69
2022-08-28T06:46:43.678Z,97255.53
2022-08-28T06:49:12.789Z,97252.22
2022-08-28T06:51:41.922Z,97256.94
2022-08-28T06:54:10.659Z,97251.94
2022-08-28T06:56:39.083Z,97256.06
2022-08-28T06:59:08.142Z,97263.81
2022-08-28T07:01:37.355Z,97251.09
2022-08-28T07:04:09.067Z,97251.97
2022-08-28T07:06:39.390Z,97254.47
2022-08-28T07:09:11.690Z,97253.91
2022-08-28T07:11:40.135Z,97249.09
2022-08-28T07:14:08.620Z,97249.00
2022-08-28T07:16:41.012Z,97248.16
2022-08-28T07:19:10.982Z,97240.91
2022-08-28T07:21:42.075Z,97243.13
2022-08-28T07:24:11.979Z,97250.69
2022-08-28T07:26:43.813Z,97247.16
2022-08-28T07:29:12.641Z,97245.41
2022-08-28T07:31:43.094Z,97242.19
2022-08-28T07:34:13.855Z,97245.63
2022-08-28T07:36:42.936Z,97241.94
2022-08-28T07:39:12.459Z,97249.91
2022-08-28T07:41:43.079Z,97244.06
2022-08-28T07:44:33.140Z,97239.78
2022-08-28T07:47:04.709Z,97233.25
2022-08-28T07:49:35.079Z,97235.00
2022-08-28T07:52:03.910Z,97227.72
2022-08-28T07:54:33.322Z,97229.53
2022-08-28T07:57:02.988Z,97226.53
2022-08-28T07:59:36.817Z,97225.06
2022-08-28T08:02:06.751Z,97221.84
2022-08-28T08:04:35.551Z,97224.81
2022-08-28T08:07:04.485Z,97218.47
2022-08-28T08:09:36.375Z,97213.81
2022-08-28T08:12:06.690Z,97208.53
2022-08-28T08:14:35.529Z,97215.84
2022-08-28T08:17:04.245Z,97209.88
2022-08-28T08:19:38.214Z,97212.38
2022-08-28T08:22:07.425Z,97216.50
2022-08-28T08:24:35.907Z,97209.91
2022-08-28T08:27:11.105Z,97208.53
2022-08-28T08:29:39.643Z,97214.91
2022-08-28T08:32:10.084Z,97210.31
2022-08-28T08:34:42.451Z,97206.47
2022-08-28T08:37:13.825Z,97206.00
2022-08-28T08:39:43.284Z,97212.50
2022-08-28T08:42:30.557Z,97210.03
2022-08-28T08:45:04.143Z,97210.69
2022-08-28T08:47:56.558Z,97212.97
2022-08-28T08:50:36.667Z,97210.94
2022-08-28T08:53:27.578Z,97213.38
2022-08-28T08:56:01.963Z,97213.06
2022-08-28T08:58:49.069Z,97199.13
2022-08-28T09:01:56.005Z,97200.78
2022-08-28T09:04:34.603Z,97202.84
2022-08-28T09:07:12.231Z,97203.69
2022-08-28T09:10:00.848Z,97199.41
2022-08-28T09:12:30.593Z,97191.97
2022-08-28T09:15:14.617Z,97204.25
2022-08-28T09:17:48.946Z,97196.06
2022-08-28T09:20:25.913Z,97197.28
2022-08-28T09:23:01.965Z,97194.06
2022-08-28T09:25:51.428Z,97199.28
2022-08-28T09:28:25.350Z,97191.00
2022-08-28T09:31:11.147Z,97187.00
2022-08-28T09:33:45.940Z,97197.06
2022-08-28T09:36:26.478Z,97198.28
2022-08-28T09:39:11.309Z,97196.66
2022-08-28T09:42:13.013Z,97195.34
2022-08-28T09:45:18.961Z,97187.84
2022-08-28T09:48:01.863Z,97191.06
2022-08-28T09:50:36.022Z,97178.06
2022-08-28T09:53:10.424Z,97175.75
2022-08-28T09:56:03.875Z,97171.72
2022-08-28T09:58:52.501Z,97176.56
2022-08-28T10:01:27.469Z,97173.94
2022-08-28T10:04:19.969Z,97176.00
2022-08-28T10:07:12.595Z,97169.72
2022-08-28T10:10:11.986Z,97167.75
2022-08-28T10:12:59.760Z,97160.00
2022-08-28T10:15:55.490Z,97155.25
2022-08-28T10:18:52.466Z,97154.00
2022-08-28T10:21:32.823Z,97151.94
2022-08-28T10:24:16.714Z,97159.34
2022-08-28T10:27:20.797Z,97149.28
2022-08-28T10:30:12.503Z,97154.28
2022-08-28T10:33:00.275Z,97146.34
2022-08-28T10:35:52.376Z,97144.19
2022-08-28T10:38:30.428Z,97147.53
2022-08-28T10:41:12.918Z,97144.53
2022-08-28T10:43:48.194Z,97137.16
2022-08-28T10:46:27.252Z,97140.41
2022-08-28T10:49:27.632Z,97134.81
2022-08-28T10:52:31.992Z,97137.03
2022-08-28T10:55:08.565Z,97134.06
2022-08-28T10:57:44.119Z,97137.28
2022-08-28T11:00:19.176Z,97131.28
2022-08-28T11:02:57.138Z,97122.13
2022-08-28T11:05:29.001Z,97127.59
2022-08-28T11:08:12.914Z,97128.31
2022-08-28T11:10:46.402Z,97130.84
2022-08-28T11:13:36.083Z,97121.41
2022-08-28T11:16:15.878Z,97130.25
2022-08-28T11:19:01.370Z,97127.09
2022-08-28T11:21:33.950Z,97126.81
2022-08-28T11:24:29.018Z,97119.19
2022-08-28T11:27:05.005Z,97120.63
2022-08-28T11:30:12.108Z,97116.31
2022-08-28T11:32:56.376Z,97112.34
2022-08-28T11:35:32.218Z,97117.91
2022-08-28T11:38:02.315Z,97115.25
2022-08-28T11:40:34.909Z,97107.47
2022-08-28T11:43:21.026Z,97099.50
2022-08-28T11:45:56.684Z,97108.00
2022-08-28T11:48:26.680Z,97104.56
2022-08-28T11:51:36.744Z,97104.97
2022-08-28T11:54:22.637Z,97109.25
2022-08-28T11:57:08.216Z,97103.59
2022-08-28T11:59:42.399Z,97096.72
2022-08-28T12:02:57.158Z,97091.75
2022-08-28T12:05:34.119Z,97094.81
2022-08-28T12:08:05.074Z,97095.50
2022-08-28T12:10:33.764Z,97095.66
2022-08-28T12:13:03.668Z,97089.66
2022-08-28T12:15:34.182Z,97089.25
2022-08-28T12:18:17.327Z,97093.63
2022-08-28T12:20:51.641Z,97082.97
2022-08-28T12:23:37.971Z,97079.41
2022-08-28T12:26:21.390Z,97075.69
2022-08-28T12:28:59.380Z,97080.56
2022-08-28T12:32:11.913Z,97081.25
2022-08-28T12:35:02.476Z,97083.66
2022-08-28T12:37:52.824Z,97083.91
2022-08-28T12:40:41.070Z,97085.91
2022-08-28T12:43:15.573Z,97085.84
2022-08-28T12:45:57.838Z,97077.06
2022-08-28T12:48:59.911Z,97078.88
2022-08-28T12:51:34.412Z,97079.84
2022-08-28T12:54:06.493Z,97082.56
2022-08-28T12:56:37.446Z,97077.63
2022-08-28T12:59:38.971Z,97077.13
2022-08-28T13:02:29.337Z,97075.97
2022-08-28T13:05:09.150Z,97083.16
2022-08-28T13:07:40.338Z,97072.28
2022-08-28T13:10:42.317Z,97083.69
2022-08-28T13:13:46.935Z,97079.25
2022-08-28T13:16:45.938Z,97081.59
2022-08-28T13:19:28.317Z,97077.63
2022-08-28T13:22:03.159Z,97068.75
2022-08-28T13:24:38.427Z,97062.25
2022-08-28T13:27:11.036Z,97061.41
2022-08-28T13:30:23.385Z,97064.53
2022-08-28T13:33:26.652Z,97071.25
2022-08-28T13:35:55.263Z,97072.78
2022-08-28T13:38:48.125Z,97069.16
2022-08-28T13:41:27.289Z,97066.81
2022-08-28T13:43:56.422Z,97058.63
2022-08-28T13:46:25.771Z,97058.41
2022-08-28T13:48:56.284Z,97059.47
2022-08-28T13:51:25.408Z,97057.50
2022-08-28T13:53:54.922Z,97051.34
2022-08-28T13:56:28.446Z,97064.69
2022-08-28T13:58:58.129Z,97063.28
2022-08-28T14:01:50.248Z,97063.44
2022-08-28T14:04:19.704Z,97062.75
2022-08-28T14:06:50.245Z,97046.75
2022-08-28T14:09:19.336Z,97061.97
2022-08-28T14:11:50.162Z,97051.81
2022-08-28T14:14:21.217Z,97060.44
2022-08-28T14:16:54.860Z,97057.97
2022-08-28T14:19:23.679Z,97057.63
2022-08-28T14:21:53.735Z,97059.53
2022-08-28T14:24:22.375Z,97060.31
2022-08-28T14:26:54.994Z,97062.19
2022-08-28T14:29:23.433Z,97053.13
2022-08-28T14:31:53.211Z,97054.00
2022-08-28T14:34:22.875Z,97057.94
2022-08-28T14:36:55.644Z,97049.50
2022-08-28T14:39:25.928Z,97058.50
2022-08-28T14:41:55.189Z,97055.13
2022-08-28T14:44:24.245Z,97056.06
2022-08-28T14:46:57.033Z,97063.41
2022-08-28T14:49:29.417Z,97055.69
2022-08-28T14:52:00.447Z,97055.78
2022-08-28T14:54:29.741Z,97053.88
2022-08-28T14:56:58.309Z,97054.50
2022-08-28T14:59:29.374Z,97050.38
2022-08-28T15:02:00.361Z,97056.75
2022-08-28T15:04:35.205Z,97046.09
2022-08-28T15:07:11.032Z,97039.31
2022-08-28T15:09:43.615Z,97042.09
2022-08-28T15:12:12.837Z,97046.09
2022-08-28T15:14:41.327Z,97045.00
2022-08-28T15:17:34.491Z,97054.19
2022-08-28T15:20:06.390Z,97044.53
2022-08-28T15:22:38.349Z,97042.22
2022-08-28T15:25:09.884Z,97044.38
2022-08-28T15:27:46.225Z,97040.44
2022-08-28T15:30:15.242Z,97046.78
2022-08-28T15:32:48.426Z,97047.81
2022-08-28T15:35:16.773Z,97044.03
2022-08-28T15:37:46.858Z,97045.84
2022-08-28T15:40:34.317Z,97044.13
2022-08-28T15:43:06.151Z,97043.53
2022-08-28T15:45:38.819Z,97038.38
2022-08-28T15:48:08.892Z,97042.25
2022-08-28T15:50:37.715Z,97039.16
2022-08-28T15:53:10.241Z,97039.44
2022-08-28T15:55:47.311Z,97043.72
2022-08-28T15:58:15.715Z,97049.09
2022-08-28T16:00:47.569Z,97054.50
2022-08-28T16:03:20.033Z,97045.47
2022-08-28T16:05:53.654Z,97041.22
2022-08-28T16:08:22.540Z,97043.50
2022-08-28T16:10:53.816Z,97056.63
2022-08-28T16:13:23.842Z,97069.88
2022-08-28T16:15:55.064Z,97067.69
2022-08-28T16:18:24.550Z,97062.44
2022-08-28T16:20:53.055Z,97061.56
2022-08-28T16:23:25.451Z,97072.09
2022-08-28T16:25:56.590Z,97062.06
2022-08-28T16:28:27.107Z,97062.00
2022-08-28T16:30:55.686Z,97059.81
2022-08-28T16:33:26.813Z,97067.78
2022-08-28T16:35:57.092Z,97073.75
2022-08-28T16:38:27.355Z,97066.59
2022-08-28T16:40:55.836Z,97078.53
2022-08-28T16:43:25.555Z,97076.75
2022-08-28T16:46:03.660Z,97077.00
2022-08-28T16:48:35.893Z,97082.06
2022-08-28T16:51:07.010Z,97091.97
2022-08-28T16:53:36.299Z,97085.59
2022-08-28T16:56:10.216Z,97085.50
2022-08-28T16:58:40.162Z,97080.41
2022-08-28T17:01:09.263Z,97086.47
2022-08-28T17:03:40.149Z,97088.41
2022-08-28T17:06:19.597Z,97086.06
2022-08-28T17:08:48.457Z,97096.94
2022-08-28T17:11:17.735Z,97097.91
2022-08-28T17:13:46.565Z,97097.66
2022-08-28T17:16:16.290Z,97105.56
2022-08-28T17:18:50.975Z,97110.22
2022-08-28T17:21:41.857Z,97106.66
2022-08-28T17:24:12.797Z,97122.03
2022-08-28T17:26:41.930Z,97128.56
2022-08-28T17:29:10.845Z,97129.28
2022-08-28T17:31:39.631Z,97132.44
2022-08-28T17:34:10.725Z,97134.63
2022-08-28T17:36:40.125Z,97148.97
2022-08-28T17:39:14.451Z,97149.31
2022-08-28T17:41:44.037Z,97153.38
2022-08-28T17:44:14.534Z,97159.81
2022-08-28T17:46:45.951Z,97160.53
2022-08-28T17:49:14.772Z,97161.16
2022-08-28T17:51:44.457Z,97162.84
2022-08-28T17:54:15.532Z,97153.25
2022-08-28T17:56:53.561Z,97171.09
2022-08-28T17:59:45.105Z,97169.22
2022-08-28T18:02:18.142Z,97175.78
2022-08-28T18:04:47.346Z,97175.28
2022-08-28T18:07:21.386Z,97176.56
2022-08-28T18:09:57.334Z,97179.88
2022-08-28T18:12:26.567Z,97188.88
2022-08-28T18:14:56.864Z,97197.00
2022-08-28T18:17:28.628Z,97202.72
2022-08-28T18:20:02.486Z,97203.31
2022-08-28T18:22:38.314Z,97205.31
2022-08-28T18:25:31.142Z,97207.19
2022-08-28T18:28:00.859Z,97208.63
2022-08-28T18:30:29.556Z,97205.88
2022-08-28T18:33:07.465Z,97214.84
2022-08-28T18:35:42.087Z,97212.22
2022-08-28T18:38:37.348Z,97215.00
2022-08-28T18:41:08.824Z,97211.56
2022-08-28T18:43:43.732Z,97213.44
2022-08-28T18:46:15.471Z,97215.59
2022-08-28T18:48:46.116Z,97210.56
2022-08-28T18:51:21.684Z,97213.19
2022-08-28T18:53:50.645Z,97222.81
2022-08-28T18:56:20.326Z,97222.50
2022-08-28T18:58:53.770Z,97230.38
2022-08-28T19:01:27.190Z,97231.13
2022-08-28T19:04:03.792Z,97230.22
2022-08-28T19:06:36.136Z,97239.03
2022-08-28T19:09:11.677Z,97235.78
2022-08-28T19:11:53.488Z,97240.94
2022-08-28T19:14:26.649Z,97258.00
2022-08-28T19:16:56.249Z,97253.88
2022-08-28T19:22:18.215Z,97269.56
2022-08-28T19:24:51.148Z,97272.03
2022-08-28T19:27:34.109Z,97282.34
2022-08-28T19:30:10.286Z,97282.13
2022-08-28T19:32:38.744Z,97284.38
2022-08-28T19:35:10.720Z,97281.03
2022-08-28T19:37:46.945Z,97280.66
2022-08-28T19:40:16.971Z,97280.81
2022-08-28T19:42:48.847Z,97281.13
2022-08-28T19:45:18.788Z,97293.13
2022-08-28T19:47:59.881Z,97285.22
2022-08-28T19:50:29.773Z,97281.81
2022-08-28T19:52:59.301Z,97303.59
2022-08-28T19:55:29.782Z,97296.09
2022-08-28T19:58:01.186Z,97291.09
2022-08-28T20:00:38.136Z,97300.16
2022-08-28T20:03:07.859Z,97303.28
2022-08-28T20:05:44.405Z,97302.16
2022-08-28T20:08:14.346Z,97312.88
2022-08-28T20:10:47.603Z,97303.38
2022-08-28T20:13:16.080Z,97312.75
2022-08-28T20:15:45.929Z,97310.41
2022-08-28T20:18:15.175Z,97305.16
2022-08-28T20:20:46.079Z,97306.34
2022-08-28T20:23:15.829Z,97305.28
2022-08-28T20:25:50.618Z,97306.31
2022-08-28T20:28:20.945Z,97310.91
2022-08-28T20:30:49.738Z,97311.94
2022-08-28T20:33:18.177Z,97313.94
2022-08-28T20:35:46.660Z,97320.34
2022-08-28T20:38:15.192Z,97316.16
2022-08-28T20:40:43.842Z,97311.00
2022-08-28T20:43:13.497Z,97318.59
2022-08-28T20:45:42.039Z,97313.81
2022-08-28T20:48:10.332Z,97324.81
2022-08-28T20:50:38.661Z,97324.03
2022-08-28T20:53:07.526Z,97326.28
2022-08-28T20:55:36.631Z,97327.94
2022-08-28T20:58:07.952Z,97324.91
2022-08-28T21:00:36.330Z,97323.06
2022-08-28T21:03:04.793Z,97331.03
2022-08-28T21:05:34.425Z,97320.75
2022-08-28T21:08:03.116Z,97319.84
2022-08-28T21:10:31.569Z,97331.03
2022-08-28T21:13:00.025Z,97328.13
2022-08-28T21:15:29.965Z,97325.13
2022-08-28T21:18:02.392Z,97325.13
2022-08-28T21:20:32.912Z,97323.78
2022-08-28T21:23:02.989Z,97325.69
2022-08-28T21:25:31.431Z,97328.25
2022-08-28T21:27:59.895Z,97324.53
2022-08-28T21:30:32.829Z,97316.75
2022-08-28T21:33:02.242Z,97321.03
2022-08-28T21:35:32.021Z,97314.03
2022-08-28T21:38:00.410Z,97320.34
2022-08-28T21:40:28.741Z,97324.50
2022-08-28T21:42:57.126Z,97326.78
2022-08-28T21:45:25.661Z,97328.00
2022-08-28T21:47:54.106Z,97330.31
2022-08-28T21:50:22.557Z,97335.22
2022-08-28T21:52:50.777Z,97331.84
2022-08-28T21:55:19.787Z,97332.63
2022-08-28T21:57:48.763Z,97328.66
2022-08-28T22:00:23.571Z,97330.22
2022-08-28T22:02:51.984Z,97336.06
2022-08-28T22:05:20.904Z,97316.97
2022-08-28T22:07:49.907Z,97326.50
2022-08-28T22:10:18.212Z,97323.13
2022-08-28T22:12:46.613Z,97329.28
2022-08-28T22:15:15.371Z,97325.53
2022-08-28T22:17:44.725Z,97334.84
2022-08-28T22:20:13.144Z,97335.53
2022-08-28T22:22:59.812Z,97328.47
2022-08-28T22:25:29.369Z,97332.44
2022-08-28T22:27:57.784Z,97332.31
2022-08-28T22:30:26.192Z,97336.09
2022-08-28T22:32:55.144Z,97331.44
2022-08-28T22:35:23.468Z,97329.69
2022-08-28T22:37:52.493Z,97333.56
2022-08-28T22:40:21.964Z,97338.38
2022-08-28T22:42:51.496Z,97336.97
2022-08-28T22:45:20.820Z,97330.91
2022-08-28T22:47:52.185Z,97327.16
2022-08-28T22:50:20.650Z,97337.69
2022-08-28T22:52:49.468Z,97338.56
2022-08-28T22:55:18.410Z,97342.66
2022-08-28T22:57:47.700Z,97335.56
2022-08-28T23:00:19.766Z,97335.13
2022-08-28T23:02:49.506Z,97339.31
2022-08-28T23:05:18.416Z,97341.59
2022-08-28T23:07:46.825Z,97340.31
2022-08-28T23:10:16.169Z,97345.59
2022-08-28T23:12:44.497Z,97337.53
2022-08-28T23:15:15.929Z,97338.72
2022-08-28T23:17:44.269Z,97331.94
2022-08-28T23:20:14.142Z,97329.84
2022-08-28T23:22:42.486Z,97339.25
2022-08-28T23:25:15.146Z,97331.94
2022-08-28T23:27:44.569Z,97334.09
2022-08-28T23:30:13.891Z,97340.06
2022-08-28T23:32:42.259Z,97336.28
2022-08-28T23:35:12.006Z,97337.06
2022-08-28T23:37:40.931Z,97334.91
2022-08-28T23:40:16.173Z,97331.63
2022-08-28T23:42:44.719Z,97339.41
2022-08-28T23:45:13.730Z,97345.09
2022-08-28T23:47:42.808Z,97338.78
2022-08-28T23:50:14.220Z,97332.22
2022-08-28T23:52:44.287Z,97339.00
2022-08-28T23:55:13.519Z,97342.38
2022-08-28T23:57:43.350Z,97344.44
